sensor_id;sensor_type;location;lat;lon;timestamp;pressure;altitude;pressure_sealevel;temperature;humidity
53647;BME280;39550;52.230;5.194;2022-07-23T00:00:47;101842.75;;;19.02;61.18
53647;BME280;39550;52.230;5.194;2022-07-23T00:03:13;101843.69;;;18.96;61.32
53647;BME280;39550;52.230;5.194;2022-07-23T00:05:39;101855.84;;;19.00;61.09
53647;BME280;39550;52.230;5.194;2022-07-23T00:08:05;101850.63;;;19.00;61.68
53647;BME280;39550;52.230;5.194;2022-07-23T00:10:31;101841.03;;;18.99;61.35
53647;BME280;39550;52.230;5.194;2022-07-23T00:12:56;101841.94;;;18.98;61.37
53647;BME280;39550;52.230;5.194;2022-07-23T00:15:22;101834.09;;;18.97;61.51
53647;BME280;39550;52.230;5.194;2022-07-23T00:17:47;101835.00;;;18.97;61.27
53647;BME280;39550;52.230;5.194;2022-07-23T00:20:13;101836.75;;;18.95;61.32
53647;BME280;39550;52.230;5.194;2022-07-23T00:22:52;101826.28;;;18.95;61.63
53647;BME280;39550;52.230;5.194;2022-07-23T00:25:19;101833.34;;;18.90;61.59
53647;BME280;39550;52.230;5.194;2022-07-23T00:27:44;101831.56;;;18.92;61.40
53647;BME280;39550;52.230;5.194;2022-07-23T00:30:11;101824.59;;;18.91;61.63
53647;BME280;39550;52.230;5.194;2022-07-23T00:32:51;101829.81;;;18.91;61.53
53647;BME280;39550;52.230;5.194;2022-07-23T00:35:19;101831.56;;;18.92;61.56
53647;BME280;39550;52.230;5.194;2022-07-23T00:37:45;101816.78;;;18.86;61.46
53647;BME280;39550;52.230;5.194;2022-07-23T00:40:11;101821.16;;;18.89;61.45
53647;BME280;39550;52.230;5.194;2022-07-23T00:42:36;101814.19;;;18.88;61.62
53647;BME280;39550;52.230;5.194;2022-07-23T00:45:02;101807.28;;;18.81;61.75
53647;BME280;39550;52.230;5.194;2022-07-23T00:47:28;101820.28;;;18.84;61.66
53647;BME280;39550;52.230;5.194;2022-07-23T00:49:53;101816.78;;;18.86;61.66
53647;BME280;39550;52.230;5.194;2022-07-23T00:52:18;101819.41;;;18.85;61.75
53647;BME280;39550;52.230;5.194;2022-07-23T00:54:44;101806.34;;;18.85;61.84
53647;BME280;39550;52.230;5.194;2022-07-23T00:57:09;101808.09;;;18.83;61.43
53647;BME280;39550;52.230;5.194;2022-07-23T00:59:34;101812.47;;;18.82;61.85
53647;BME280;39550;52.230;5.194;2022-07-23T01:02:00;101814.25;;;18.82;61.57
53647;BME280;39550;52.230;5.194;2022-07-23T01:04:25;101808.13;;;18.81;61.99
53647;BME280;39550;52.230;5.194;2022-07-23T01:06:50;101801.19;;;18.80;61.62
53647;BME280;39550;52.230;5.194;2022-07-23T01:09:16;101802.94;;;18.80;61.91
53647;BME280;39550;52.230;5.194;2022-07-23T01:11:41;101806.44;;;18.80;61.86
53647;BME280;39550;52.230;5.194;2022-07-23T01:14:15;101806.41;;;18.79;61.77
53647;BME280;39550;52.230;5.194;2022-07-23T01:16:42;101803.81;;;18.79;61.42
53647;BME280;39550;52.230;5.194;2022-07-23T01:19:08;101797.75;;;18.77;61.74
53647;BME280;39550;52.230;5.194;2022-07-23T01:21:37;101789.06;;;18.75;61.73
53647;BME280;39550;52.230;5.194;2022-07-23T01:24:03;101798.63;;;18.76;61.90
53647;BME280;39550;52.230;5.194;2022-07-23T01:26:29;101794.28;;;18.75;61.86
53647;BME280;39550;52.230;5.194;2022-07-23T01:28:54;101799.50;;;18.73;61.99
53647;BME280;39550;52.230;5.194;2022-07-23T01:31:19;101786.53;;;18.68;62.02
53647;BME280;39550;52.230;5.194;2022-07-23T01:33:45;101780.41;;;18.71;61.78
53647;BME280;39550;52.230;5.194;2022-07-23T01:36:10;101784.75;;;18.70;61.88
53647;BME280;39550;52.230;5.194;2022-07-23T01:38:36;101782.16;;;18.69;61.64
53647;BME280;39550;52.230;5.194;2022-07-23T01:41:01;101788.25;;;18.69;62.09
53647;BME280;39550;52.230;5.194;2022-07-23T01:43:26;101781.31;;;18.68;62.08
53647;BME280;39550;52.230;5.194;2022-07-23T01:45:52;101781.31;;;18.68;61.91
53647;BME280;39550;52.230;5.194;2022-07-23T01:48:17;101780.47;;;18.66;62.01
53647;BME280;39550;52.230;5.194;2022-07-23T01:50:42;101789.16;;;18.65;61.86
53647;BME280;39550;52.230;5.194;2022-07-23T01:53:07;101789.16;;;18.65;62.17
53647;BME280;39550;52.230;5.194;2022-07-23T01:55:33;101784.81;;;18.64;62.57
53647;BME280;39550;52.230;5.194;2022-07-23T01:57:58;101786.59;;;18.62;61.94
53647;BME280;39550;52.230;5.194;2022-07-23T02:00:24;101792.69;;;18.63;62.40
53647;BME280;39550;52.230;5.194;2022-07-23T02:02:49;101790.09;;;18.61;62.25
53647;BME280;39550;52.230;5.194;2022-07-23T02:05:14;101775.28;;;18.60;62.51
53647;BME280;39550;52.230;5.194;2022-07-23T02:07:40;101777.91;;;18.60;62.67
53647;BME280;39550;52.230;5.194;2022-07-23T02:10:06;101786.59;;;18.59;62.61
53647;BME280;39550;52.230;5.194;2022-07-23T02:12:31;101775.38;;;18.52;62.33
53647;BME280;39550;52.230;5.194;2022-07-23T02:14:56;101786.66;;;18.56;62.35
53647;BME280;39550;52.230;5.194;2022-07-23T02:17:22;101787.50;;;18.58;62.61
53647;BME280;39550;52.230;5.194;2022-07-23T02:19:47;101790.13;;;18.55;62.67
53647;BME280;39550;52.230;5.194;2022-07-23T02:22:12;101784.91;;;18.55;62.73
53647;BME280;39550;52.230;5.194;2022-07-23T02:24:37;101784.06;;;18.53;62.61
53647;BME280;39550;52.230;5.194;2022-07-23T02:27:03;101787.53;;;18.53;62.38
53647;BME280;39550;52.230;5.194;2022-07-23T02:29:28;101781.47;;;18.53;62.36
53647;BME280;39550;52.230;5.194;2022-07-23T02:31:53;101782.34;;;18.52;62.42
53647;BME280;39550;52.230;5.194;2022-07-23T02:34:19;101778.88;;;18.51;62.17
53647;BME280;39550;52.230;5.194;2022-07-23T02:36:44;101784.97;;;18.50;61.99
53647;BME280;39550;52.230;5.194;2022-07-23T02:39:10;101785.00;;;18.49;62.87
53647;BME280;39550;52.230;5.194;2022-07-23T02:41:35;101791.94;;;18.48;62.34
53647;BME280;39550;52.230;5.194;2022-07-23T02:44:00;101793.69;;;18.48;62.59
53647;BME280;39550;52.230;5.194;2022-07-23T02:46:26;101807.59;;;18.47;62.64
53647;BME280;39550;52.230;5.194;2022-07-23T02:48:51;101801.53;;;18.48;62.46
53647;BME280;39550;52.230;5.194;2022-07-23T02:51:16;101780.75;;;18.37;62.48
53647;BME280;39550;52.230;5.194;2022-07-23T02:53:42;101799.81;;;18.44;62.61
53647;BME280;39550;52.230;5.194;2022-07-23T02:56:07;101812.00;;;18.43;62.47
53647;BME280;39550;52.230;5.194;2022-07-23T02:58:33;101805.91;;;18.43;62.13
53647;BME280;39550;52.230;5.194;2022-07-23T03:00:58;101805.91;;;18.43;62.43
53647;BME280;39550;52.230;5.194;2022-07-23T03:03:23;101806.84;;;18.40;62.38
53647;BME280;39550;52.230;5.194;2022-07-23T03:05:49;101806.84;;;18.40;62.62
53647;BME280;39550;52.230;5.194;2022-07-23T03:08:14;101805.13;;;18.34;62.42
53647;BME280;39550;52.230;5.194;2022-07-23T03:10:39;101805.97;;;18.38;62.28
53647;BME280;39550;52.230;5.194;2022-07-23T03:13:05;101814.66;;;18.37;62.50
53647;BME280;39550;52.230;5.194;2022-07-23T03:15:30;101809.47;;;18.35;61.97
53647;BME280;39550;52.230;5.194;2022-07-23T03:17:55;101813.81;;;18.36;62.38
53647;BME280;39550;52.230;5.194;2022-07-23T03:20:20;101809.47;;;18.35;62.23
53647;BME280;39550;52.230;5.194;2022-07-23T03:22:46;101819.03;;;18.35;62.06
53647;BME280;39550;52.230;5.194;2022-07-23T03:25:11;101814.69;;;18.35;62.07
53647;BME280;39550;52.230;5.194;2022-07-23T03:27:36;101815.56;;;18.36;61.98
53647;BME280;39550;52.230;5.194;2022-07-23T03:30:02;101809.50;;;18.32;62.51
53647;BME280;39550;52.230;5.194;2022-07-23T03:32:28;101816.44;;;18.33;62.25
53647;BME280;39550;52.230;5.194;2022-07-23T03:34:53;101815.56;;;18.34;61.95
53647;BME280;39550;52.230;5.194;2022-07-23T03:37:19;101826.91;;;18.33;62.28
53647;BME280;39550;52.230;5.194;2022-07-23T03:39:44;101808.63;;;18.33;62.21
53647;BME280;39550;52.230;5.194;2022-07-23T03:42:10;101814.72;;;18.32;62.14
53647;BME280;39550;52.230;5.194;2022-07-23T03:44:36;101808.66;;;18.32;62.07
53647;BME280;39550;52.230;5.194;2022-07-23T03:47:04;101809.53;;;18.29;62.34
53647;BME280;39550;52.230;5.194;2022-07-23T03:49:31;101801.72;;;18.28;62.08
53647;BME280;39550;52.230;5.194;2022-07-23T03:51:56;101806.06;;;18.27;62.18
53647;BME280;39550;52.230;5.194;2022-07-23T03:54:21;101793.88;;;18.26;62.04
53647;BME280;39550;52.230;5.194;2022-07-23T03:56:47;101795.63;;;18.26;62.36
53647;BME280;39550;52.230;5.194;2022-07-23T03:59:12;101796.50;;;18.26;62.18
53647;BME280;39550;52.230;5.194;2022-07-23T04:01:37;101792.16;;;18.25;62.48
53647;BME280;39550;52.230;5.194;2022-07-23T04:04:03;101790.44;;;18.23;62.25
53647;BME280;39550;52.230;5.194;2022-07-23T04:06:29;101785.22;;;18.23;61.93
53647;BME280;39550;52.230;5.194;2022-07-23T04:08:54;101787.00;;;18.22;62.22
53647;BME280;39550;52.230;5.194;2022-07-23T04:11:19;101788.72;;;18.20;62.22
53647;BME280;39550;52.230;5.194;2022-07-23T04:13:45;101799.16;;;18.20;62.08
53647;BME280;39550;52.230;5.194;2022-07-23T04:16:10;101800.94;;;18.18;61.97
53647;BME280;39550;52.230;5.194;2022-07-23T04:18:36;101807.88;;;18.19;62.45
53647;BME280;39550;52.230;5.194;2022-07-23T04:21:01;101803.53;;;18.18;62.42
53647;BME280;39550;52.230;5.194;2022-07-23T04:23:26;101806.16;;;18.18;62.30
53647;BME280;39550;52.230;5.194;2022-07-23T04:25:52;101804.41;;;18.17;61.98
53647;BME280;39550;52.230;5.194;2022-07-23T04:28:17;101808.75;;;18.16;62.33
53647;BME280;39550;52.230;5.194;2022-07-23T04:30:42;101803.53;;;18.16;62.22
53647;BME280;39550;52.230;5.194;2022-07-23T04:33:08;101800.94;;;18.15;62.06
53647;BME280;39550;52.230;5.194;2022-07-23T04:35:34;101800.94;;;18.15;62.01
53647;BME280;39550;52.230;5.194;2022-07-23T04:37:59;101805.28;;;18.16;62.14
53647;BME280;39550;52.230;5.194;2022-07-23T04:40:25;101806.16;;;18.15;62.24
53647;BME280;39550;52.230;5.194;2022-07-23T04:42:50;101808.75;;;18.15;61.70
53647;BME280;39550;52.230;5.194;2022-07-23T04:45:16;101814.88;;;18.12;62.14
53647;BME280;39550;52.230;5.194;2022-07-23T04:47:41;101814.00;;;18.13;62.03
53647;BME280;39550;52.230;5.194;2022-07-23T04:50:07;101820.97;;;18.13;61.76
53647;BME280;39550;52.230;5.194;2022-07-23T04:52:32;101822.69;;;18.12;61.71
53647;BME280;39550;52.230;5.194;2022-07-23T04:54:57;101823.56;;;18.13;61.87
53647;BME280;39550;52.230;5.194;2022-07-23T04:57:23;101826.19;;;18.13;61.94
53647;BME280;39550;52.230;5.194;2022-07-23T04:59:48;101825.31;;;18.14;61.95
53647;BME280;39550;52.230;5.194;2022-07-23T05:02:13;101823.56;;;18.13;62.10
53647;BME280;39550;52.230;5.194;2022-07-23T05:04:39;101824.44;;;18.13;61.95
53647;BME280;39550;52.230;5.194;2022-07-23T05:07:04;101816.59;;;18.18;62.05
53647;BME280;39550;52.230;5.194;2022-07-23T05:09:29;101826.94;;;18.27;61.85
53647;BME280;39550;52.230;5.194;2022-07-23T05:11:55;101821.78;;;18.21;62.63
53647;BME280;39550;52.230;5.194;2022-07-23T05:14:20;101824.44;;;18.12;62.67
53647;BME280;39550;52.230;5.194;2022-07-23T05:16:45;101819.31;;;17.99;62.96
53647;BME280;39550;52.230;5.194;2022-07-23T05:19:10;101828.91;;;17.94;63.53
53647;BME280;39550;52.230;5.194;2022-07-23T05:21:36;101821.94;;;17.90;63.09
53647;BME280;39550;52.230;5.194;2022-07-23T05:24:01;101819.38;;;17.85;63.81
53647;BME280;39550;52.230;5.194;2022-07-23T05:26:26;101811.56;;;17.93;63.55
53647;BME280;39550;52.230;5.194;2022-07-23T05:28:52;101820.19;;;17.98;63.12
53647;BME280;39550;52.230;5.194;2022-07-23T05:31:17;101823.66;;;18.02;63.01
53647;BME280;39550;52.230;5.194;2022-07-23T05:33:43;101814.97;;;17.98;62.80
53647;BME280;39550;52.230;5.194;2022-07-23T05:36:08;101830.59;;;18.04;63.05
53647;BME280;39550;52.230;5.194;2022-07-23T05:38:34;101828.88;;;18.00;63.15
53647;BME280;39550;52.230;5.194;2022-07-23T05:41:00;101836.66;;;18.07;62.81
53647;BME280;39550;52.230;5.194;2022-07-23T05:43:26;101840.16;;;18.06;62.32
53647;BME280;39550;52.230;5.194;2022-07-23T05:45:52;101840.16;;;18.04;62.36
53647;BME280;39550;52.230;5.194;2022-07-23T05:48:17;101834.97;;;17.99;62.75
53647;BME280;39550;52.230;5.194;2022-07-23T05:50:42;101833.22;;;17.98;62.68
53647;BME280;39550;52.230;5.194;2022-07-23T05:53:08;101841.06;;;17.98;62.69
53647;BME280;39550;52.230;5.194;2022-07-23T05:55:33;101844.56;;;17.97;62.65
53647;BME280;39550;52.230;5.194;2022-07-23T05:57:59;101846.28;;;18.01;62.63
53647;BME280;39550;52.230;5.194;2022-07-23T06:00:25;101842.78;;;17.99;62.87
53647;BME280;39550;52.230;5.194;2022-07-23T06:02:50;101846.25;;;18.04;62.61
53647;BME280;39550;52.230;5.194;2022-07-23T06:05:16;101850.56;;;18.07;62.37
53647;BME280;39550;52.230;5.194;2022-07-23T06:07:41;101854.03;;;18.08;62.57
53647;BME280;39550;52.230;5.194;2022-07-23T06:10:07;101851.44;;;18.08;62.28
53647;BME280;39550;52.230;5.194;2022-07-23T06:12:33;101855.78;;;18.09;62.66
53647;BME280;39550;52.230;5.194;2022-07-23T06:14:58;101853.19;;;18.09;62.60
53647;BME280;39550;52.230;5.194;2022-07-23T06:17:24;101853.19;;;18.09;62.75
53647;BME280;39550;52.230;5.194;2022-07-23T06:19:49;101849.69;;;18.10;62.75
53647;BME280;39550;52.230;5.194;2022-07-23T06:22:15;101839.25;;;18.11;62.38
53647;BME280;39550;52.230;5.194;2022-07-23T06:24:40;101849.63;;;18.16;62.37
53647;BME280;39550;52.230;5.194;2022-07-23T06:27:05;101840.94;;;18.17;62.41
53647;BME280;39550;52.230;5.194;2022-07-23T06:29:31;101849.59;;;18.22;61.83
53647;BME280;39550;52.230;5.194;2022-07-23T06:31:56;101854.78;;;18.25;61.88
53647;BME280;39550;52.230;5.194;2022-07-23T06:34:21;101857.38;;;18.27;61.90
53647;BME280;39550;52.230;5.194;2022-07-23T06:36:47;101858.28;;;18.24;61.66
53647;BME280;39550;52.230;5.194;2022-07-23T06:39:12;101863.53;;;18.21;61.82
53647;BME280;39550;52.230;5.194;2022-07-23T06:41:37;101866.16;;;18.19;62.25
53647;BME280;39550;52.230;5.194;2022-07-23T06:44:03;101865.25;;;18.22;61.82
53647;BME280;39550;52.230;5.194;2022-07-23T06:46:28;101861.75;;;18.23;62.19
53647;BME280;39550;52.230;5.194;2022-07-23T06:48:54;101864.31;;;18.26;62.28
53647;BME280;39550;52.230;5.194;2022-07-23T06:51:19;101868.66;;;18.30;61.68
53647;BME280;39550;52.230;5.194;2022-07-23T06:53:44;101866.06;;;18.32;61.67
53647;BME280;39550;52.230;5.194;2022-07-23T06:56:10;101860.03;;;18.19;61.45
53647;BME280;39550;52.230;5.194;2022-07-23T06:58:35;101875.69;;;18.19;60.78
53647;BME280;39550;52.230;5.194;2022-07-23T07:01:00;101869.66;;;18.14;60.65
53647;BME280;39550;52.230;5.194;2022-07-23T07:03:25;101875.78;;;18.10;60.49
53647;BME280;39550;52.230;5.194;2022-07-23T07:05:51;101870.56;;;18.07;61.06
53647;BME280;39550;52.230;5.194;2022-07-23T07:08:17;101872.34;;;18.01;60.44
53647;BME280;39550;52.230;5.194;2022-07-23T07:10:42;101884.50;;;18.02;61.11
53647;BME280;39550;52.230;5.194;2022-07-23T07:13:07;101878.41;;;18.05;60.54
53647;BME280;39550;52.230;5.194;2022-07-23T07:15:33;101879.28;;;18.06;61.40
53647;BME280;39550;52.230;5.194;2022-07-23T07:17:58;101874.06;;;18.02;61.43
53647;BME280;39550;52.230;5.194;2022-07-23T07:20:23;101874.97;;;18.00;61.72
53647;BME280;39550;52.230;5.194;2022-07-23T07:22:49;101879.28;;;18.02;61.20
53647;BME280;39550;52.230;5.194;2022-07-23T07:25:14;101875.84;;;18.00;61.05
53647;BME280;39550;52.230;5.194;2022-07-23T07:27:40;101886.22;;;18.03;61.38
53647;BME280;39550;52.230;5.194;2022-07-23T07:30:06;101885.38;;;18.03;61.31
53647;BME280;39550;52.230;5.194;2022-07-23T07:32:31;101886.22;;;18.03;61.07
53647;BME280;39550;52.230;5.194;2022-07-23T07:35:02;101891.44;;;18.03;61.08
53647;BME280;39550;52.230;5.194;2022-07-23T07:37:28;101890.59;;;18.03;61.05
53647;BME280;39550;52.230;5.194;2022-07-23T07:39:53;101899.25;;;18.05;60.80
53647;BME280;39550;52.230;5.194;2022-07-23T07:42:18;101900.13;;;18.04;60.67
53647;BME280;39550;52.230;5.194;2022-07-23T07:44:44;101903.63;;;18.04;61.18
53647;BME280;39550;52.230;5.194;2022-07-23T07:47:09;101901.00;;;18.08;60.73
53647;BME280;39550;52.230;5.194;2022-07-23T07:49:34;101900.97;;;18.09;60.51
53647;BME280;39550;52.230;5.194;2022-07-23T07:52:00;101902.69;;;18.12;60.67
53647;BME280;39550;52.230;5.194;2022-07-23T07:54:25;101894.00;;;18.13;60.50
53647;BME280;39550;52.230;5.194;2022-07-23T07:56:50;101900.06;;;18.15;60.40
53647;BME280;39550;52.230;5.194;2022-07-23T07:59:15;101903.56;;;18.14;60.93
53647;BME280;39550;52.230;5.194;2022-07-23T08:01:41;101905.28;;;18.15;60.55
53647;BME280;39550;52.230;5.194;2022-07-23T08:04:06;101907.03;;;18.16;60.86
53647;BME280;39550;52.230;5.194;2022-07-23T08:06:32;101907.91;;;18.15;60.49
53647;BME280;39550;52.230;5.194;2022-07-23T08:08:57;101912.22;;;18.19;60.51
53647;BME280;39550;52.230;5.194;2022-07-23T08:11:22;101917.44;;;18.19;60.51
53647;BME280;39550;52.230;5.194;2022-07-23T08:13:48;101900.97;;;18.15;60.67
53647;BME280;39550;52.230;5.194;2022-07-23T08:16:13;101912.19;;;18.25;60.42
53647;BME280;39550;52.230;5.194;2022-07-23T08:18:38;101903.47;;;18.26;59.95
53647;BME280;39550;52.230;5.194;2022-07-23T08:21:04;101913.03;;;18.27;60.07
53647;BME280;39550;52.230;5.194;2022-07-23T08:23:31;101908.69;;;18.26;60.09
53647;BME280;39550;52.230;5.194;2022-07-23T08:25:56;101906.91;;;18.31;60.17
53647;BME280;39550;52.230;5.194;2022-07-23T08:28:22;101901.69;;;18.31;59.66
53647;BME280;39550;52.230;5.194;2022-07-23T08:30:47;101917.38;;;18.30;59.94
53647;BME280;39550;52.230;5.194;2022-07-23T08:33:15;101920.81;;;18.30;59.43
53647;BME280;39550;52.230;5.194;2022-07-23T08:35:49;101911.25;;;18.32;59.83
53647;BME280;39550;52.230;5.194;2022-07-23T08:38:17;101905.16;;;18.36;59.88
53647;BME280;39550;52.230;5.194;2022-07-23T08:40:45;101907.75;;;18.36;59.70
53647;BME280;39550;52.230;5.194;2022-07-23T08:43:13;101906.84;;;18.41;59.33
53647;BME280;39550;52.230;5.194;2022-07-23T08:45:41;101907.72;;;18.44;59.36
53647;BME280;39550;52.230;5.194;2022-07-23T08:48:15;101913.69;;;18.52;59.00
53647;BME280;39550;52.230;5.194;2022-07-23T08:50:46;101912.81;;;18.58;58.82
53647;BME280;39550;52.230;5.194;2022-07-23T08:53:12;101910.19;;;18.58;58.92
53647;BME280;39550;52.230;5.194;2022-07-23T08:55:38;101916.25;;;18.62;58.63
53647;BME280;39550;52.230;5.194;2022-07-23T08:58:03;101904.97;;;18.58;58.73
53647;BME280;39550;52.230;5.194;2022-07-23T09:00:29;101907.53;;;18.64;58.77
53647;BME280;39550;52.230;5.194;2022-07-23T09:02:54;101910.19;;;18.58;58.81
53647;BME280;39550;52.230;5.194;2022-07-23T09:05:20;101910.16;;;18.61;58.67
53647;BME280;39550;52.230;5.194;2022-07-23T09:08:12;101915.38;;;18.61;58.73
53647;BME280;39550;52.230;5.194;2022-07-23T09:10:55;101919.75;;;18.62;58.23
53647;BME280;39550;52.230;5.194;2022-07-23T09:16:19;101922.31;;;18.65;57.16
53647;BME280;39550;52.230;5.194;2022-07-23T09:18:56;101921.44;;;18.63;57.66
53647;BME280;39550;52.230;5.194;2022-07-23T09:21:32;101927.56;;;18.62;57.69
53647;BME280;39550;52.230;5.194;2022-07-23T09:24:00;101913.63;;;18.63;57.68
53647;BME280;39550;52.230;5.194;2022-07-23T09:34:15;101919.53;;;18.88;56.76
53647;BME280;39550;52.230;5.194;2022-07-23T09:36:42;101920.34;;;18.92;56.97
53647;BME280;39550;52.230;5.194;2022-07-23T09:39:08;101912.53;;;18.92;56.95
53647;BME280;39550;52.230;5.194;2022-07-23T09:41:35;101918.53;;;19.00;56.55
53647;BME280;39550;52.230;5.194;2022-07-23T09:44:28;101920.16;;;19.14;56.42
53647;BME280;39550;52.230;5.194;2022-07-23T09:46:58;101912.22;;;19.20;56.76
53647;BME280;39550;52.230;5.194;2022-07-23T09:49:24;101920.03;;;19.25;56.87
53647;BME280;39550;52.230;5.194;2022-07-23T09:51:58;101925.19;;;19.29;56.55
53647;BME280;39550;52.230;5.194;2022-07-23T09:57:05;101923.44;;;19.30;56.24
53647;BME280;39550;52.230;5.194;2022-07-23T09:59:34;101923.50;;;19.25;56.76
53647;BME280;39550;52.230;5.194;2022-07-23T10:02:00;101925.25;;;19.23;56.55
53647;BME280;39550;52.230;5.194;2022-07-23T10:04:28;101919.97;;;19.29;56.52
53647;BME280;39550;52.230;5.194;2022-07-23T10:06:57;101912.97;;;19.34;56.45
53647;BME280;39550;52.230;5.194;2022-07-23T10:09:26;101911.97;;;19.43;55.31
53647;BME280;39550;52.230;5.194;2022-07-23T10:11:53;101913.66;;;19.47;55.25
53647;BME280;39550;52.230;5.194;2022-07-23T10:14:21;101915.41;;;19.48;54.79
53647;BME280;39550;52.230;5.194;2022-07-23T10:16:47;101912.72;;;19.53;54.79
53647;BME280;39550;52.230;5.194;2022-07-23T10:19:13;101912.78;;;19.50;54.81
53647;BME280;39550;52.230;5.194;2022-07-23T10:21:50;101918.88;;;19.49;55.30
53647;BME280;39550;52.230;5.194;2022-07-23T10:33:17;101912.47;;;19.73;54.68
53647;BME280;39550;52.230;5.194;2022-07-23T10:36:09;101912.34;;;19.84;53.84
53647;BME280;39550;52.230;5.194;2022-07-23T10:38:51;101913.22;;;19.86;54.08
53647;BME280;39550;52.230;5.194;2022-07-23T10:44:19;101906.88;;;20.02;54.55
53647;BME280;39550;52.230;5.194;2022-07-23T10:47:00;101905.03;;;20.07;54.27
53647;BME280;39550;52.230;5.194;2022-07-23T10:49:37;101906.81;;;20.05;54.17
53647;BME280;39550;52.230;5.194;2022-07-23T10:52:22;101896.47;;;19.96;54.07
53647;BME280;39550;52.230;5.194;2022-07-23T10:54:55;101905.25;;;19.95;53.64
53647;BME280;39550;52.230;5.194;2022-07-23T10:57:24;101894.66;;;20.01;54.04
53647;BME280;39550;52.230;5.194;2022-07-23T11:02:33;101895.19;;;20.25;53.65
53647;BME280;39550;52.230;5.194;2022-07-23T11:05:04;101880.13;;;20.39;53.97
53647;BME280;39550;52.230;5.194;2022-07-23T11:07:30;101889.66;;;20.44;53.87
53647;BME280;39550;52.230;5.194;2022-07-23T11:09:55;101893.16;;;20.42;54.07
53647;BME280;39550;52.230;5.194;2022-07-23T11:15:08;101888.47;;;20.63;53.35
53647;BME280;39550;52.230;5.194;2022-07-23T11:20:18;101900.56;;;20.70;53.46
53647;BME280;39550;52.230;5.194;2022-07-23T11:25:30;101888.66;;;20.51;53.70
53647;BME280;39550;52.230;5.194;2022-07-23T11:28:11;101899.91;;;20.57;53.87
53647;BME280;39550;52.230;5.194;2022-07-23T11:30:40;101895.38;;;20.67;53.67
53647;BME280;39550;52.230;5.194;2022-07-23T11:35:42;101896.88;;;20.81;53.56
53647;BME280;39550;52.230;5.194;2022-07-23T11:38:14;101902.16;;;20.79;53.77
53647;BME280;39550;52.230;5.194;2022-07-23T11:40:40;101903.78;;;20.88;53.88
53647;BME280;39550;52.230;5.194;2022-07-23T11:43:10;101900.22;;;20.89;53.52
53647;BME280;39550;52.230;5.194;2022-07-23T11:45:41;101906.25;;;20.94;53.88
53647;BME280;39550;52.230;5.194;2022-07-23T11:48:09;101887.91;;;20.94;53.32
53647;BME280;39550;52.230;5.194;2022-07-23T11:50:36;101899.91;;;21.07;52.47
53647;BME280;39550;52.230;5.194;2022-07-23T11:53:02;101904.25;;;21.07;52.23
53647;BME280;39550;52.230;5.194;2022-07-23T11:55:28;101905.38;;;20.95;52.18
53647;BME280;39550;52.230;5.194;2022-07-23T11:57:54;101899.34;;;20.90;52.44
53647;BME280;39550;52.230;5.194;2022-07-23T12:00:29;101900.16;;;20.92;52.73
53647;BME280;39550;52.230;5.194;2022-07-23T12:03:00;101901.56;;;21.12;53.05
53647;BME280;39550;52.230;5.194;2022-07-23T12:05:32;101896.13;;;21.21;53.30
53647;BME280;39550;52.230;5.194;2022-07-23T12:07:59;101898.69;;;21.25;53.10
53647;BME280;39550;52.230;5.194;2022-07-23T12:10:35;101900.38;;;21.26;52.71
53647;BME280;39550;52.230;5.194;2022-07-23T12:13:04;101890.84;;;21.24;52.98
53647;BME280;39550;52.230;5.194;2022-07-23T12:15:31;101888.91;;;21.32;52.32
53647;BME280;39550;52.230;5.194;2022-07-23T12:17:59;101884.53;;;21.33;52.45
53647;BME280;39550;52.230;5.194;2022-07-23T12:20:28;101880.78;;;21.46;52.27
53647;BME280;39550;52.230;5.194;2022-07-23T12:22:59;101882.41;;;21.53;51.71
53647;BME280;39550;52.230;5.194;2022-07-23T12:25:35;101880.47;;;21.62;51.29
53647;BME280;39550;52.230;5.194;2022-07-23T12:28:10;101882.69;;;21.80;51.38
53647;BME280;39550;52.230;5.194;2022-07-23T12:30:42;101887.81;;;21.85;51.35
53647;BME280;39550;52.230;5.194;2022-07-23T12:33:09;101877.31;;;21.85;50.93
53647;BME280;39550;52.230;5.194;2022-07-23T12:35:40;101881.19;;;22.07;51.33
53647;BME280;39550;52.230;5.194;2022-07-23T12:38:09;101883.44;;;22.23;50.95
53647;BME280;39550;52.230;5.194;2022-07-23T12:40:36;101872.72;;;22.32;50.56
53647;BME280;39550;52.230;5.194;2022-07-23T12:43:06;101871.66;;;22.41;50.54
53647;BME280;39550;52.230;5.194;2022-07-23T12:48:26;101859.22;;;22.48;49.88
53647;BME280;39550;52.230;5.194;2022-07-23T12:50:54;101860.81;;;22.53;50.06
53647;BME280;39550;52.230;5.194;2022-07-23T12:53:23;101867.38;;;22.71;49.62
53647;BME280;39550;52.230;5.194;2022-07-23T12:55:50;101854.19;;;22.73;49.48
53647;BME280;39550;52.230;5.194;2022-07-23T12:58:18;101867.78;;;22.89;49.28
53647;BME280;39550;52.230;5.194;2022-07-23T13:00:55;101868.38;;;22.99;49.45
53647;BME280;39550;52.230;5.194;2022-07-23T13:03:30;101866.44;;;23.05;48.41
53647;BME280;39550;52.230;5.194;2022-07-23T13:05:56;101860.03;;;23.16;48.03
53647;BME280;39550;52.230;5.194;2022-07-23T13:08:22;101856.97;;;23.31;47.96
53647;BME280;39550;52.230;5.194;2022-07-23T13:10:48;101853.19;;;23.40;48.07
53647;BME280;39550;52.230;5.194;2022-07-23T13:13:16;101847.66;;;23.49;47.67
53647;BME280;39550;52.230;5.194;2022-07-23T13:15:45;101850.75;;;23.62;47.14
53647;BME280;39550;52.230;5.194;2022-07-23T13:18:10;101850.38;;;23.74;47.15
53647;BME280;39550;52.230;5.194;2022-07-23T13:20:36;101854.56;;;23.82;46.75
53647;BME280;39550;52.230;5.194;2022-07-23T13:23:04;101852.94;;;23.77;46.63
53647;BME280;39550;52.230;5.194;2022-07-23T13:25:29;101854.66;;;23.78;46.65
53647;BME280;39550;52.230;5.194;2022-07-23T13:27:55;101858.38;;;23.71;46.26
53647;BME280;39550;52.230;5.194;2022-07-23T13:30:20;101853.91;;;23.75;46.47